Time;durP1;ratioP1;P1;durP2;ratioP2;P2;SDS_P1;SDS_P2;PMS_P1;PMS_P2;Temp;Humidity;BMP_temperature;BMP_pressure;BME280_temperature;BME280_humidity;BME280_pressure;Samples;Min_cycle;Max_cycle;Signal;HPM_P1;HPM_P2
2023/08/24 00:01:04;;;;;;;5.00;4.60;;;22.60;99.90;;;;;;5115574;28;20460;-81
2023/08/24 00:03:31;;;;;;;5.50;5.07;;;22.60;99.90;;;;;;5113608;28;20490;-81
2023/08/24 00:06:11;;;;;;;6.40;5.67;;;22.60;99.90;;;;;;5114845;28;20552;-81
2023/08/24 00:08:38;;;;;;;6.67;6.00;;;22.60;99.90;;;;;;5113329;28;20456;-78
2023/08/24 00:11:07;;;;;;;5.90;5.40;;;22.60;99.90;;;;;;5114946;28;20534;-78
2023/08/24 00:13:38;;;;;;;5.87;5.27;;;22.60;99.90;;;;;;5114179;28;20556;-80
2023/08/24 00:16:05;;;;;;;5.53;5.13;;;22.50;99.90;;;;;;5114979;28;20526;-81
2023/08/24 00:18:33;;;;;;;6.50;5.90;;;22.50;99.90;;;;;;5114297;28;20465;-81
2023/08/24 00:21:07;;;;;;;6.00;5.40;;;22.50;99.90;;;;;;5115317;28;20475;-81
2023/08/24 00:23:36;;;;;;;5.20;4.80;;;22.40;99.90;;;;;;5114362;28;20468;-81
2023/08/24 00:26:03;;;;;;;5.40;4.90;;;22.40;99.90;;;;;;5095932;28;20813;-81
2023/08/24 00:28:30;;;;;;;5.67;5.17;;;22.40;99.90;;;;;;5063649;28;20466;-78
2023/08/24 00:30:58;;;;;;;5.60;4.77;;;22.40;99.90;;;;;;5073472;28;20481;-81
2023/08/24 00:33:25;;;;;;;6.17;4.57;;;22.40;99.90;;;;;;5077627;28;20973;-81
2023/08/24 00:35:52;;;;;;;6.13;5.33;;;22.40;99.90;;;;;;5094614;28;20463;-81
2023/08/24 00:38:19;;;;;;;6.27;5.77;;;22.40;99.90;;;;;;5093381;28;20989;-80
2023/08/24 00:40:46;;;;;;;5.90;5.37;;;22.30;99.90;;;;;;5084173;28;20482;-79
2023/08/24 00:43:14;;;;;;;5.73;5.23;;;22.30;99.90;;;;;;5074236;28;20577;-80
2023/08/24 00:45:44;;;;;;;6.50;5.87;;;22.30;99.90;;;;;;5073555;28;20451;-81
2023/08/24 00:48:16;;;;;;;6.50;5.90;;;22.30;99.90;;;;;;5091131;28;20802;-80
2023/08/24 00:50:43;;;;;;;5.83;5.33;;;22.30;99.90;;;;;;5093403;28;20468;-79
2023/08/24 00:53:10;;;;;;;5.90;5.30;;;22.30;99.90;;;;;;5094583;28;20470;-80
2023/08/24 00:55:38;;;;;;;5.57;5.07;;;22.20;99.90;;;;;;5092473;28;20466;-81
2023/08/24 00:58:05;;;;;;;5.97;5.37;;;22.20;99.90;;;;;;5094014;28;21009;-79
2023/08/24 01:00:36;;;;;;;5.07;4.67;;;22.30;99.90;;;;;;5093819;28;20461;-81
2023/08/24 01:03:04;;;;;;;5.43;4.97;;;22.20;99.90;;;;;;5093764;28;20539;-79
2023/08/24 01:05:34;;;;;;;7.17;6.47;;;22.20;99.90;;;;;;5092936;28;20495;-79
2023/08/24 01:08:02;;;;;;;5.17;4.67;;;22.10;99.90;;;;;;5093844;28;20862;-80
2023/08/24 01:10:40;;;;;;;6.20;5.70;;;22.10;99.90;;;;;;5092934;28;20788;-79
2023/08/24 01:13:11;;;;;;;5.13;4.73;;;22.00;99.90;;;;;;5093674;28;20485;-80
2023/08/24 01:15:46;;;;;;;5.33;4.93;;;22.00;99.90;;;;;;5091760;28;20904;-80
2023/08/24 01:18:18;;;;;;;5.13;4.73;;;22.00;99.90;;;;;;5094514;28;20472;-79
2023/08/24 01:20:51;;;;;;;5.50;5.00;;;22.00;99.90;;;;;;5092699;28;20450;-80
2023/08/24 01:23:33;;;;;;;7.13;5.70;;;22.00;99.90;;;;;;5084391;28;20495;-80
2023/08/24 01:26:10;;;;;;;6.07;5.43;;;22.00;99.90;;;;;;5084743;28;20557;-81
2023/08/24 01:28:38;;;;;;;5.93;5.47;;;22.00;99.90;;;;;;5072190;28;20930;-79
2023/08/24 01:31:07;;;;;;;6.47;5.87;;;22.00;99.90;;;;;;5072818;28;20921;-81
2023/08/24 01:33:34;;;;;;;5.40;5.00;;;22.00;99.90;;;;;;5077939;28;20955;-79
2023/08/24 01:36:03;;;;;;;5.90;5.37;;;22.00;99.90;;;;;;5093639;28;20498;-80
2023/08/24 01:38:31;;;;;;;6.67;6.17;;;22.00;99.90;;;;;;5092642;28;20480;-80
2023/08/24 01:41:21;;;;;;;5.57;5.13;;;22.00;99.90;;;;;;5082542;28;20541;-79
2023/08/24 01:43:54;;;;;;;5.63;5.20;;;22.00;99.90;;;;;;5074649;28;20926;-81
2023/08/24 01:46:23;;;;;;;4.83;4.47;;;22.00;99.90;;;;;;5075456;28;20466;-80
2023/08/24 01:48:52;;;;;;;4.50;4.10;;;22.10;99.90;;;;;;5094150;28;20480;-81
2023/08/24 01:51:20;;;;;;;6.53;4.60;;;22.10;99.90;;;;;;5095685;28;20544;-79
2023/08/24 01:53:49;;;;;;;5.37;4.90;;;22.10;99.90;;;;;;5098374;28;20519;-80
2023/08/24 01:56:18;;;;;;;4.93;4.43;;;22.10;99.90;;;;;;5095960;28;20476;-80
2023/08/24 01:58:44;;;;;;;4.53;4.13;;;22.10;99.90;;;;;;5093930;28;20496;-79
2023/08/24 02:01:12;;;;;;;5.83;5.33;;;22.10;99.90;;;;;;5095155;28;20488;-78
2023/08/24 02:03:40;;;;;;;6.10;5.60;;;22.20;99.90;;;;;;5092038;28;20473;-80
2023/08/24 02:06:07;;;;;;;5.30;4.90;;;22.20;99.90;;;;;;5093274;28;20501;-79
2023/08/24 02:08:36;;;;;;;4.83;4.53;;;22.20;99.90;;;;;;5091265;28;20983;-80
2023/08/24 02:11:03;;;;;;;5.60;4.97;;;22.20;99.90;;;;;;5092942;28;20461;-78
2023/08/24 02:13:31;;;;;;;5.20;4.80;;;22.20;99.90;;;;;;5093357;28;20465;-79
2023/08/24 02:16:05;;;;;;;4.27;3.97;;;22.20;99.90;;;;;;5093259;28;20464;-78
2023/08/24 02:18:33;;;;;;;4.63;4.20;;;22.20;99.90;;;;;;5093252;28;20462;-78
2023/08/24 02:21:00;;;;;;;4.23;3.90;;;22.20;99.90;;;;;;5093209;28;20461;-78
2023/08/24 02:23:27;;;;;;;4.40;4.00;;;22.20;99.90;;;;;;5093548;28;20811;-80
2023/08/24 02:25:54;;;;;;;4.77;4.43;;;22.30;99.90;;;;;;5084626;28;20494;-78
2023/08/24 02:28:22;;;;;;;4.00;3.70;;;22.30;99.90;;;;;;5076810;28;20970;-78
2023/08/24 02:31:02;;;;;;;5.17;4.20;;;22.30;99.90;;;;;;5068745;28;20536;-79
2023/08/24 02:33:29;;;;;;;4.97;4.53;;;22.20;99.90;;;;;;5092281;28;20961;-79
2023/08/24 02:35:57;;;;;;;6.90;5.00;;;22.30;99.90;;;;;;5095658;28;20454;-80
2023/08/24 02:38:24;;;;;;;5.03;4.63;;;22.20;99.90;;;;;;5096561;28;20469;-80
2023/08/24 02:41:02;;;;;;;4.43;4.03;;;22.30;99.90;;;;;;5078001;28;20489;-80
2023/08/24 02:43:29;;;;;;;4.10;3.77;;;22.30;99.90;;;;;;5083099;28;20478;-81
2023/08/24 02:46:07;;;;;;;4.40;4.03;;;22.30;99.90;;;;;;5083996;28;20465;-77
2023/08/24 02:48:35;;;;;;;3.93;3.63;;;22.30;99.90;;;;;;5092277;28;20472;-80
2023/08/24 02:51:04;;;;;;;3.17;2.97;;;22.30;99.90;;;;;;5096635;28;20473;-80
2023/08/24 02:53:33;;;;;;;2.90;2.70;;;22.30;99.90;;;;;;5096687;28;20465;-79
2023/08/24 02:56:03;;;;;;;20.87;18.73;;;22.30;99.90;;;;;;5095696;28;20461;-81
2023/08/24 02:58:31;;;;;;;19.53;17.67;;;22.40;99.90;;;;;;5096503;28;20548;-78
2023/08/24 03:00:59;;;;;;;17.30;15.63;;;22.40;99.90;;;;;;5096176;28;20461;-80
2023/08/24 03:03:28;;;;;;;7.63;6.90;;;22.40;99.90;;;;;;5096882;28;20465;-80
2023/08/24 03:05:58;;;;;;;5.57;5.13;;;22.40;99.90;;;;;;5097998;28;20477;-79
2023/08/24 03:08:26;;;;;;;4.77;4.37;;;22.40;99.90;;;;;;5096136;28;21011;-78
2023/08/24 03:10:53;;;;;;;4.43;4.03;;;22.40;99.90;;;;;;5095900;28;20966;-80
2023/08/24 03:13:20;;;;;;;4.10;3.80;;;22.40;99.90;;;;;;5096325;28;20468;-78
2023/08/24 03:15:47;;;;;;;3.80;3.50;;;22.40;99.90;;;;;;5094208;28;20469;-80
2023/08/24 03:18:17;;;;;;;3.77;3.50;;;22.40;99.90;;;;;;5096050;28;20493;-78
2023/08/24 03:20:45;;;;;;;4.13;3.53;;;22.40;99.90;;;;;;5108692;28;20844;-81
2023/08/24 03:23:13;;;;;;;25.63;22.83;;;22.50;99.90;;;;;;5115916;28;20787;-79
2023/08/24 03:25:44;;;;;;;16.10;14.47;;;22.40;99.90;;;;;;5115785;28;20465;-81
2023/08/24 03:28:11;;;;;;;11.27;10.10;;;22.50;99.90;;;;;;5115914;28;20484;-78
2023/08/24 03:30:40;;;;;;;8.87;8.03;;;22.50;99.90;;;;;;5107538;28;20953;-78
2023/08/24 03:33:07;;;;;;;5.87;5.30;;;22.50;99.90;;;;;;5115620;28;20568;-80
2023/08/24 03:35:37;;;;;;;5.87;5.07;;;22.50;99.90;;;;;;5115855;28;20778;-78
2023/08/24 03:38:04;;;;;;;4.47;4.17;;;22.50;99.90;;;;;;5114479;28;20519;-78
2023/08/24 03:40:31;;;;;;;4.13;3.83;;;22.50;99.90;;;;;;5101345;28;20474;-80
2023/08/24 03:43:00;;;;;;;5.07;4.10;;;22.50;99.90;;;;;;5074517;28;20821;-79
2023/08/24 03:45:27;;;;;;;4.37;3.80;;;22.50;99.90;;;;;;5075398;28;20474;-79
2023/08/24 03:47:55;;;;;;;4.30;4.00;;;22.50;99.90;;;;;;5089116;28;20983;-78
2023/08/24 03:50:22;;;;;;;3.60;3.40;;;22.50;99.90;;;;;;5094757;28;20465;-78
2023/08/24 03:52:51;;;;;;;5.03;4.43;;;22.50;99.90;;;;;;5094959;28;20465;-78
2023/08/24 03:55:22;;;;;;;4.27;3.87;;;22.50;99.90;;;;;;5095089;28;20465;-78
2023/08/24 03:57:49;;;;;;;4.20;3.90;;;22.50;99.90;;;;;;5094899;28;20472;-79
2023/08/24 04:00:16;;;;;;;4.80;4.40;;;22.50;99.90;;;;;;5094375;28;20967;-81
2023/08/24 04:02:44;;;;;;;5.10;4.70;;;22.50;99.90;;;;;;5094954;28;20544;-81
2023/08/24 04:05:11;;;;;;;4.20;3.80;;;22.50;99.90;;;;;;5094184;28;20474;-80
2023/08/24 04:07:40;;;;;;;4.00;3.60;;;22.50;99.90;;;;;;5094820;28;20792;-78
2023/08/24 04:10:09;;;;;;;4.10;3.70;;;22.40;99.90;;;;;;5094185;28;20479;-80
2023/08/24 04:12:36;;;;;;;4.00;3.70;;;22.50;99.90;;;;;;5095011;28;20469;-78
2023/08/24 04:15:04;;;;;;;3.77;3.57;;;22.40;99.90;;;;;;5094441;28;20470;-80
2023/08/24 04:17:32;;;;;;;3.90;3.60;;;22.40;99.90;;;;;;5094985;28;20462;-80
2023/08/24 04:19:58;;;;;;;4.23;3.83;;;22.40;99.90;;;;;;5094131;28;20809;-78
2023/08/24 04:22:25;;;;;;;4.00;3.70;;;22.40;99.90;;;;;;5094567;28;20970;-78
2023/08/24 04:24:52;;;;;;;3.80;3.50;;;22.40;99.90;;;;;;5094251;28;20474;-78
2023/08/24 04:27:21;;;;;;;4.03;3.77;;;22.40;99.90;;;;;;5093845;28;20453;-81
2023/08/24 04:29:52;;;;;;;3.70;3.40;;;22.40;99.90;;;;;;5094537;28;20472;-79
2023/08/24 04:32:23;;;;;;;3.60;3.30;;;22.50;99.90;;;;;;5094120;28;20461;-81
2023/08/24 04:34:50;;;;;;;3.57;3.37;;;22.40;99.90;;;;;;5094466;28;20465;-78
2023/08/24 04:37:26;;;;;;;3.77;3.57;;;22.50;99.90;;;;;;5093650;28;21271;-81
2023/08/24 04:39:53;;;;;;;4.40;4.10;;;22.50;99.90;;;;;;5092065;28;20531;-78
2023/08/24 04:42:29;;;;;;;5.37;4.30;;;22.50;99.90;;;;;;5074572;28;20558;-80
2023/08/24 04:45:20;;;;;;;4.33;4.03;;;22.50;99.90;;;;;;5065607;28;20541;-80
2023/08/24 04:48:21;;;;;;;4.63;3.90;;;22.40;99.90;;;;;;5088004;28;20477;-81
2023/08/24 04:51:06;;;;;;;3.47;3.10;;;22.50;99.90;;;;;;5083564;28;20534;-80
2023/08/24 04:53:46;;;;;;;3.77;3.47;;;22.50;99.90;;;;;;5092482;28;20522;-81
2023/08/24 04:56:14;;;;;;;3.40;3.20;;;22.50;99.90;;;;;;5093492;28;20504;-79
2023/08/24 04:58:54;;;;;;;3.60;3.30;;;22.50;99.90;;;;;;5082987;28;20485;-80
2023/08/24 05:01:21;;;;;;;3.90;3.60;;;22.50;99.90;;;;;;5094163;28;20479;-81
2023/08/24 05:03:50;;;;;;;4.63;4.17;;;22.50;99.90;;;;;;5093383;28;20962;-78
2023/08/24 05:06:17;;;;;;;3.73;3.43;;;22.50;99.90;;;;;;5093881;28;20469;-80
2023/08/24 05:08:47;;;;;;;3.67;3.33;;;22.50;99.90;;;;;;5092505;28;20469;-78
2023/08/24 05:11:15;;;;;;;4.10;3.80;;;22.50;99.90;;;;;;5082523;28;20473;-80
2023/08/24 05:13:46;;;;;;;2.93;2.73;;;22.50;99.90;;;;;;5093220;28;20519;-81
2023/08/24 05:16:13;;;;;;;4.33;2.93;;;22.60;99.90;;;;;;5081585;28;20484;-78
2023/08/24 05:18:41;;;;;;;3.30;3.10;;;22.60;99.90;;;;;;5093190;28;20469;-81
2023/08/24 05:21:08;;;;;;;3.43;3.13;;;22.60;99.90;;;;;;5092866;28;20461;-81
2023/08/24 05:23:36;;;;;;;4.03;3.37;;;22.60;99.90;;;;;;5093831;28;20538;-79
2023/08/24 05:26:06;;;;;;;3.30;3.00;;;22.60;99.90;;;;;;5093128;28;20629;-79
2023/08/24 05:28:33;;;;;;;3.37;3.17;;;22.70;99.90;;;;;;5093564;28;20473;-79
2023/08/24 05:31:03;;;;;;;3.20;2.90;;;22.70;99.90;;;;;;5093143;28;20525;-79
2023/08/24 05:33:32;;;;;;;3.20;2.90;;;22.80;99.90;;;;;;5093302;28;20471;-81
2023/08/24 05:35:59;;;;;;;4.60;4.13;;;22.80;99.90;;;;;;5083793;28;20497;-81
2023/08/24 05:38:32;;;;;;;3.33;3.03;;;22.80;99.90;;;;;;5092782;28;20498;-79
2023/08/24 05:41:00;;;;;;;6.53;3.20;;;22.80;99.90;;;;;;5080769;28;20471;-79
2023/08/24 05:43:27;;;;;;;3.20;2.90;;;22.80;99.90;;;;;;5073373;28;20486;-80
2023/08/24 05:45:54;;;;;;;4.37;2.80;;;22.90;99.90;;;;;;5072485;28;20936;-81
2023/08/24 05:48:23;;;;;;;4.47;3.40;;;22.90;99.90;;;;;;5091181;28;20992;-79
2023/08/24 05:50:51;;;;;;;4.97;3.30;;;22.90;99.90;;;;;;5093194;28;20479;-78
2023/08/24 05:53:18;;;;;;;3.80;3.40;;;23.00;99.90;;;;;;5092564;28;20466;-80
2023/08/24 05:55:54;;;;;;;3.10;2.90;;;23.00;99.90;;;;;;5093082;28;20518;-80
2023/08/24 05:58:21;;;;;;;3.50;3.20;;;23.00;99.90;;;;;;5092419;28;20473;-79
2023/08/24 06:00:48;;;;;;;5.40;3.60;;;23.00;99.90;;;;;;5093427;28;20466;-79
2023/08/24 06:03:15;;;;;;;3.40;3.20;;;23.10;99.90;;;;;;5096868;28;20528;-78
2023/08/24 06:05:46;;;;;;;3.43;2.90;;;23.10;99.90;;;;;;5097297;28;20496;-80
2023/08/24 06:08:15;;;;;;;6.10;3.53;;;23.20;99.90;;;;;;5095842;28;20461;-80
2023/08/24 06:10:42;;;;;;;3.03;2.83;;;23.20;99.90;;;;;;5097365;28;20518;-80
2023/08/24 06:13:14;;;;;;;4.60;3.30;;;23.20;99.90;;;;;;5097074;28;20461;-81
2023/08/24 06:15:41;;;;;;;3.07;2.87;;;23.20;99.90;;;;;;5096957;28;20462;-81
2023/08/24 06:18:08;;;;;;;2.90;2.70;;;23.20;99.90;;;;;;5096864;28;20487;-79
2023/08/24 06:20:37;;;;;;;2.97;2.77;;;23.30;99.90;;;;;;5096855;28;20568;-80
2023/08/24 06:23:07;;;;;;;3.53;3.23;;;23.30;99.90;;;;;;5096041;28;20545;-78
2023/08/24 06:25:34;;;;;;;3.23;2.90;;;23.30;99.90;;;;;;5096850;28;20493;-78
2023/08/24 06:28:03;;;;;;;5.10;3.97;;;23.40;99.90;;;;;;5097033;28;20967;-78
2023/08/24 06:30:32;;;;;;;3.87;3.50;;;23.40;99.90;;;;;;5096586;28;20537;-78
2023/08/24 06:32:59;;;;;;;3.13;2.93;;;23.40;99.90;;;;;;5088097;28;20466;-78
2023/08/24 06:35:26;;;;;;;2.93;2.73;;;23.40;99.90;;;;;;5096584;28;20473;-81
2023/08/24 06:37:53;;;;;;;3.10;2.90;;;23.50;99.90;;;;;;5096481;28;20473;-79
2023/08/24 06:40:22;;;;;;;2.73;2.53;;;23.50;99.90;;;;;;5089910;28;20525;-79
2023/08/24 06:42:49;;;;;;;3.27;3.03;;;23.50;99.90;;;;;;5075397;28;20501;-79
2023/08/24 06:45:18;;;;;;;3.23;2.93;;;23.60;99.90;;;;;;5074983;28;20987;-80
2023/08/24 06:47:45;;;;;;;4.90;3.23;;;23.60;99.90;;;;;;5089371;28;20491;-81
2023/08/24 06:50:12;;;;;;;2.73;2.53;;;23.60;99.90;;;;;;5095889;28;20805;-79
2023/08/24 06:52:39;;;;;;;5.10;3.10;;;23.60;99.90;;;;;;5096541;28;20819;-80
2023/08/24 06:55:06;;;;;;;3.30;3.00;;;23.70;99.90;;;;;;5096254;28;20562;-78
2023/08/24 06:57:35;;;;;;;4.20;3.10;;;23.70;99.90;;;;;;5095723;28;20471;-78
2023/08/24 07:00:06;;;;;;;4.90;3.13;;;23.80;99.90;;;;;;5096073;28;20560;-78
2023/08/24 07:02:34;;;;;;;3.50;3.30;;;23.80;99.90;;;;;;5095998;28;20762;-79
2023/08/24 07:05:00;;;;;;;4.03;3.23;;;23.90;99.90;;;;;;5095943;28;20469;-78
2023/08/24 07:07:27;;;;;;;3.70;3.10;;;23.90;99.90;;;;;;5094804;28;20531;-78
2023/08/24 07:09:54;;;;;;;3.90;2.90;;;24.00;99.90;;;;;;5096326;28;20594;-78
2023/08/24 07:12:21;;;;;;;2.97;2.77;;;24.00;99.90;;;;;;5085383;28;20461;-78
2023/08/24 07:14:50;;;;;;;2.90;2.70;;;24.10;99.90;;;;;;5095987;28;20483;-78
2023/08/24 07:17:17;;;;;;;2.70;2.50;;;24.10;99.90;;;;;;5095018;28;20840;-77
2023/08/24 07:19:45;;;;;;;3.30;3.00;;;24.20;99.90;;;;;;5095506;28;20532;-78
2023/08/24 07:22:12;;;;;;;3.37;3.17;;;24.20;99.90;;;;;;5096050;28;20970;-80
2023/08/24 07:24:39;;;;;;;3.60;3.40;;;24.30;99.90;;;;;;5094684;28;20516;-77
2023/08/24 07:27:06;;;;;;;2.77;2.57;;;24.30;99.90;;;;;;5095574;28;20785;-78
2023/08/24 07:29:33;;;;;;;2.90;2.70;;;24.40;99.90;;;;;;5094900;28;20484;-78
2023/08/24 07:32:02;;;;;;;5.43;3.43;;;24.40;99.90;;;;;;5086578;28;20469;-78
2023/08/24 07:34:30;;;;;;;5.73;2.70;;;24.50;99.90;;;;;;5083946;28;20484;-78
2023/08/24 07:36:57;;;;;;;3.53;3.23;;;24.50;99.90;;;;;;5095559;28;20466;-78
2023/08/24 07:39:24;;;;;;;3.67;3.37;;;24.60;99.90;;;;;;5095775;28;20465;-81
2023/08/24 07:41:51;;;;;;;2.80;2.60;;;24.60;99.90;;;;;;5077767;28;20538;-78
2023/08/24 07:44:18;;;;;;;3.70;3.10;;;24.70;99.90;;;;;;5076473;28;20471;-80
2023/08/24 07:46:49;;;;;;;4.97;3.33;;;24.70;99.90;;;;;;5070984;28;20457;-79
2023/08/24 07:49:17;;;;;;;4.63;3.23;;;24.80;99.90;;;;;;5094665;28;20580;-80
2023/08/24 07:51:44;;;;;;;3.20;2.90;;;24.90;99.90;;;;;;5094094;28;20464;-79
2023/08/24 07:54:11;;;;;;;3.67;3.30;;;24.90;99.90;;;;;;5095106;28;21046;-78
2023/08/24 07:56:40;;;;;;;3.00;2.67;;;25.00;99.90;;;;;;5094400;28;20500;-80
2023/08/24 07:59:07;;;;;;;3.40;3.10;;;25.00;99.90;;;;;;5095261;28;20501;-79
2023/08/24 08:01:34;;;;;;;2.93;2.73;;;25.10;99.90;;;;;;5094246;28;20846;-80
2023/08/24 08:04:01;;;;;;;3.67;3.37;;;25.20;99.90;;;;;;5094897;28;20526;-79
2023/08/24 08:06:29;;;;;;;5.13;2.90;;;25.20;99.90;;;;;;5094447;28;20881;-80
2023/08/24 08:08:57;;;;;;;2.90;2.70;;;25.40;99.90;;;;;;5094649;28;20809;-80
2023/08/24 08:11:24;;;;;;;3.90;2.97;;;25.40;99.90;;;;;;5094488;28;20470;-80
2023/08/24 08:13:51;;;;;;;3.17;2.93;;;25.50;99.90;;;;;;5093671;28;20558;-80
2023/08/24 08:16:18;;;;;;;3.90;3.60;;;25.60;99.90;;;;;;5094818;28;20877;-78
2023/08/24 08:18:47;;;;;;;3.23;2.90;;;25.70;99.90;;;;;;5084079;28;20462;-80
2023/08/24 08:21:19;;;;;;;4.00;3.10;;;25.70;99.90;;;;;;5093499;28;20531;-78
2023/08/24 08:23:47;;;;;;;3.67;2.67;;;25.80;99.90;;;;;;5091688;28;20476;-79
2023/08/24 08:26:14;;;;;;;3.27;2.87;;;25.80;99.90;;;;;;5094443;28;21013;-79
2023/08/24 08:28:41;;;;;;;4.30;3.37;;;25.90;99.90;;;;;;5094197;28;20469;-79
2023/08/24 08:31:08;;;;;;;3.00;2.80;;;25.90;99.90;;;;;;5094036;28;20981;-79
2023/08/24 08:33:35;;;;;;;3.67;3.13;;;26.00;99.90;;;;;;5093970;28;20471;-77
2023/08/24 08:36:03;;;;;;;3.90;3.60;;;26.00;99.90;;;;;;5093892;28;20473;-77
2023/08/24 08:38:30;;;;;;;4.30;4.00;;;26.00;99.90;;;;;;5094657;28;20843;-79
2023/08/24 08:41:04;;;;;;;3.47;3.13;;;26.00;99.90;;;;;;5082856;28;20817;-80
2023/08/24 08:43:31;;;;;;;3.50;3.20;;;26.00;99.90;;;;;;5073943;28;20962;-77
2023/08/24 08:46:00;;;;;;;3.90;3.60;;;26.00;99.90;;;;;;5073256;28;20466;-79
2023/08/24 08:48:29;;;;;;;3.30;3.10;;;25.90;99.90;;;;;;5092892;28;20908;-78
2023/08/24 08:50:56;;;;;;;3.60;3.30;;;25.90;99.90;;;;;;5093768;28;20465;-79
2023/08/24 08:53:24;;;;;;;3.50;3.20;;;25.80;99.90;;;;;;5094502;28;20971;-78
2023/08/24 08:55:53;;;;;;;3.63;2.77;;;25.80;99.90;;;;;;5093573;28;20808;-79
2023/08/24 08:58:24;;;;;;;4.40;3.77;;;25.80;99.90;;;;;;5094015;28;20465;-80
2023/08/24 09:00:56;;;;;;;2.97;2.70;;;25.80;99.90;;;;;;5092987;28;20527;-78
2023/08/24 09:03:25;;;;;;;4.33;2.80;;;25.80;99.90;;;;;;5094025;28;20967;-79
2023/08/24 09:05:52;;;;;;;3.17;2.90;;;25.80;99.90;;;;;;5093716;28;20470;-80
2023/08/24 09:08:19;;;;;;;5.43;3.33;;;25.80;99.90;;;;;;5093745;28;20505;-77
2023/08/24 09:10:47;;;;;;;3.53;2.73;;;25.80;99.90;;;;;;5092568;28;20474;-77
2023/08/24 09:13:14;;;;;;;3.07;2.83;;;25.90;99.90;;;;;;5093608;28;20531;-77
2023/08/24 09:15:42;;;;;;;5.47;3.87;;;25.90;99.90;;;;;;5091902;28;20834;-79
2023/08/24 09:18:10;;;;;;;2.90;2.70;;;25.90;99.90;;;;;;5092742;28;20466;-80
2023/08/24 09:20:37;;;;;;;2.60;2.40;;;26.00;99.90;;;;;;5093753;28;20476;-79
2023/08/24 09:23:06;;;;;;;4.03;2.90;;;26.00;99.90;;;;;;5092544;28;20939;-79
2023/08/24 09:25:33;;;;;;;2.90;2.60;;;26.10;99.90;;;;;;5093771;28;20481;-80
2023/08/24 09:28:01;;;;;;;3.47;2.67;;;26.10;99.90;;;;;;5093619;28;20535;-80
2023/08/24 09:30:31;;;;;;;3.37;3.03;;;26.10;99.90;;;;;;5093292;28;20465;-78
2023/08/24 09:33:03;;;;;;;5.13;3.30;;;26.10;99.90;;;;;;5092688;28;20478;-79
2023/08/24 09:35:36;;;;;;;2.97;2.77;;;26.10;99.90;;;;;;5093861;28;20540;-79
2023/08/24 09:38:20;;;;;;;5.70;5.20;;;26.10;99.90;;;;;;5096932;28;20511;-78
2023/08/24 09:40:48;;;;;;;3.77;3.47;;;26.00;99.90;;;;;;5096719;28;20535;-78
2023/08/24 09:43:15;;;;;;;4.00;3.10;;;26.00;99.90;;;;;;5097866;28;20846;-78
2023/08/24 09:45:49;;;;;;;3.23;2.93;;;26.10;99.90;;;;;;5093975;28;20461;-78
2023/08/24 09:48:18;;;;;;;2.80;2.60;;;26.20;99.90;;;;;;5097628;28;20453;-78
2023/08/24 09:50:46;;;;;;;2.60;2.40;;;26.20;99.90;;;;;;5097711;28;20473;-78
2023/08/24 09:53:20;;;;;;;4.43;3.60;;;26.20;99.90;;;;;;5094216;28;20468;-78
2023/08/24 09:55:55;;;;;;;6.17;5.57;;;26.20;99.90;;;;;;5097965;28;20534;-78
2023/08/24 09:58:23;;;;;;;4.47;4.17;;;26.20;99.90;;;;;;5096178;28;20457;-78
2023/08/24 10:00:51;;;;;;;3.47;3.23;;;26.20;99.90;;;;;;5075515;28;20485;-79
2023/08/24 10:03:24;;;;;;;3.37;3.07;;;26.20;99.90;;;;;;5087602;28;20480;-78
2023/08/24 10:05:53;;;;;;;4.27;3.87;;;26.30;99.90;;;;;;5097336;28;20466;-77
2023/08/24 10:08:26;;;;;;;4.47;4.07;;;26.30;99.90;;;;;;5096357;28;20913;-79
2023/08/24 10:10:58;;;;;;;4.80;4.40;;;26.30;99.90;;;;;;5097066;28;20475;-79
2023/08/24 10:13:35;;;;;;;4.03;3.70;;;26.40;99.90;;;;;;5096732;28;20465;-79
2023/08/24 10:16:06;;;;;;;4.20;3.90;;;26.40;99.90;;;;;;5096427;28;20551;-78
2023/08/24 10:18:36;;;;;;;3.60;3.40;;;26.50;99.90;;;;;;5096696;28;20463;-80
2023/08/24 10:21:03;;;;;;;4.20;3.90;;;26.50;99.90;;;;;;5096986;28;20489;-79
2023/08/24 10:23:35;;;;;;;3.00;2.80;;;26.50;99.90;;;;;;5096522;28;20528;-78
2023/08/24 10:26:04;;;;;;;4.17;3.57;;;26.60;99.90;;;;;;5096296;28;20505;-80
2023/08/24 10:28:35;;;;;;;13.00;4.60;;;26.60;99.90;;;;;;5096781;28;20803;-77
2023/08/24 10:31:03;;;;;;;3.80;3.37;;;26.60;99.90;;;;;;5097046;28;20541;-80
2023/08/24 10:33:31;;;;;;;4.93;4.50;;;26.70;99.90;;;;;;5096454;28;20494;-78
2023/08/24 10:36:01;;;;;;;4.10;3.80;;;26.70;99.90;;;;;;5096895;28;20543;-79
2023/08/24 10:38:30;;;;;;;3.97;3.57;;;26.70;99.90;;;;;;5096093;28;20807;-79
2023/08/24 10:41:03;;;;;;;3.83;3.53;;;26.80;99.90;;;;;;5096618;28;20473;-77
2023/08/24 10:43:30;;;;;;;3.93;3.63;;;26.80;99.90;;;;;;5096220;28;20977;-77
2023/08/24 10:46:03;;;;;;;6.20;4.20;;;26.80;99.90;;;;;;5096693;28;20471;-78
2023/08/24 10:48:31;;;;;;;4.10;3.80;;;26.80;99.90;;;;;;5095967;28;20462;-78
2023/08/24 10:51:20;;;;;;;5.40;4.90;;;26.80;99.90;;;;;;5096351;28;20524;-78
2023/08/24 10:53:49;;;;;;;4.50;4.20;;;26.80;99.90;;;;;;5096147;28;20466;-82
2023/08/24 10:56:18;;;;;;;4.03;3.73;;;26.80;99.90;;;;;;5095875;28;20471;-77
2023/08/24 10:58:45;;;;;;;5.50;5.00;;;26.90;99.90;;;;;;5095696;28;20474;-77
2023/08/24 11:01:17;;;;;;;4.20;3.90;;;26.90;99.90;;;;;;5096525;28;20965;-79
2023/08/24 11:03:51;;;;;;;4.37;4.07;;;26.90;99.90;;;;;;5095610;28;20915;-79
2023/08/24 11:06:24;;;;;;;4.03;3.73;;;26.80;99.90;;;;;;5096279;28;20473;-78
2023/08/24 11:09:13;;;;;;;4.77;4.47;;;26.90;99.90;;;;;;5095640;28;20461;-78
2023/08/24 11:11:40;;;;;;;4.53;4.13;;;26.80;99.90;;;;;;5095524;28;20475;-77
2023/08/24 11:14:19;;;;;;;4.23;3.93;;;26.80;99.90;;;;;;5095813;28;20483;-77
2023/08/24 11:16:47;;;;;;;4.00;3.70;;;26.90;99.90;;;;;;5086629;28;20470;-77
2023/08/24 11:19:16;;;;;;;3.70;3.40;;;26.90;99.90;;;;;;5095571;28;20466;-78
2023/08/24 11:21:45;;;;;;;3.87;3.50;;;26.90;99.90;;;;;;5094514;28;20502;-78
2023/08/24 11:24:17;;;;;;;4.30;4.00;;;26.90;99.90;;;;;;5096072;28;20801;-77
2023/08/24 11:26:45;;;;;;;4.90;3.93;;;26.90;99.90;;;;;;5095229;28;20464;-79
2023/08/24 11:29:12;;;;;;;5.00;3.60;;;26.90;99.80;;;;;;5095687;28;20460;-78
2023/08/24 11:31:40;;;;;;;4.10;3.80;;;26.90;99.90;;;;;;5095196;28;20476;-77
2023/08/24 11:34:08;;;;;;;3.47;3.27;;;26.90;99.90;;;;;;5174262;22;20452;-78
2023/08/24 11:36:45;;;;;;;3.87;3.60;;;26.90;99.90;;;;;;5053688;28;20469;-80
2023/08/24 11:39:20;;;;;;;4.50;4.20;;;27.00;99.90;;;;;;5054980;28;20969;-80
2023/08/24 11:41:58;;;;;;;4.97;4.57;;;27.00;99.90;;;;;;5054380;28;20478;-78
2023/08/24 11:44:25;;;;;;;4.20;3.93;;;27.00;99.90;;;;;;5054955;28;20837;-80
2023/08/24 11:46:52;;;;;;;4.50;4.17;;;27.00;99.90;;;;;;5027084;28;20470;-80
2023/08/24 11:49:19;;;;;;;3.97;3.60;;;27.00;99.90;;;;;;5035628;28;20467;-80
2023/08/24 11:51:49;;;;;;;5.30;4.90;;;27.00;99.90;;;;;;5035143;28;20471;-80
2023/08/24 11:54:17;;;;;;;4.10;3.80;;;27.00;99.90;;;;;;5027045;28;20465;-79
2023/08/24 11:56:46;;;;;;;4.63;4.23;;;27.00;99.90;;;;;;5015374;28;20864;-80
2023/08/24 11:59:14;;;;;;;4.17;3.87;;;27.00;99.90;;;;;;5014533;28;20471;-78
2023/08/24 12:01:42;;;;;;;4.40;4.10;;;27.00;99.90;;;;;;5014864;28;20776;-80
2023/08/24 12:04:09;;;;;;;4.50;4.10;;;26.90;99.90;;;;;;5015175;28;20513;-77
2023/08/24 12:06:37;;;;;;;4.13;3.73;;;27.00;99.90;;;;;;5014891;28;20472;-77
2023/08/24 12:09:08;;;;;;;4.67;4.27;;;27.00;99.90;;;;;;5015467;28;20476;-76
2023/08/24 12:11:38;;;;;;;3.80;3.50;;;27.00;99.90;;;;;;5015582;28;20507;-78
2023/08/24 12:14:09;;;;;;;4.47;4.07;;;27.00;99.90;;;;;;5014688;28;20486;-81
2023/08/24 12:16:37;;;;;;;3.97;3.60;;;27.00;99.90;;;;;;5016397;28;20556;-80
2023/08/24 12:19:08;;;;;;;4.30;3.93;;;27.00;99.90;;;;;;5014555;28;20460;-81
2023/08/24 12:21:35;;;;;;;4.17;3.90;;;27.00;99.90;;;;;;5015167;28;20564;-78
2023/08/24 12:24:05;;;;;;;3.30;3.00;;;27.00;99.90;;;;;;5015230;28;20476;-80
2023/08/24 12:26:34;;;;;;;4.40;4.10;;;26.90;99.90;;;;;;5016938;28;20472;-78
2023/08/24 12:29:03;;;;;;;4.10;3.80;;;26.90;99.90;;;;;;5015721;28;20485;-78
2023/08/24 12:31:34;;;;;;;3.93;3.63;;;26.90;99.90;;;;;;5007341;28;20475;-77
2023/08/24 12:34:03;;;;;;;3.70;3.47;;;26.90;99.90;;;;;;5035198;28;20565;-77
2023/08/24 12:36:30;;;;;;;3.70;3.40;;;26.90;99.90;;;;;;5054160;28;20482;-77
2023/08/24 12:39:03;;;;;;;3.80;3.40;;;26.90;99.90;;;;;;5053640;28;20505;-77
2023/08/24 12:41:30;;;;;;;4.10;3.80;;;26.90;99.90;;;;;;5069560;28;20463;-77
2023/08/24 12:43:59;;;;;;;3.80;3.60;;;26.90;99.90;;;;;;5073032;28;20954;-77
2023/08/24 12:46:28;;;;;;;4.20;3.87;;;26.90;99.90;;;;;;5073780;28;20480;-79
2023/08/24 12:48:55;;;;;;;4.37;4.13;;;26.90;99.90;;;;;;5073962;28;20479;-79
2023/08/24 12:51:24;;;;;;;4.10;3.80;;;26.90;99.90;;;;;;5082296;28;20880;-80
2023/08/24 12:53:53;;;;;;;3.53;3.33;;;27.00;99.90;;;;;;5079659;28;20512;-79
2023/08/24 12:56:20;;;;;;;3.77;3.47;;;27.00;99.90;;;;;;5074057;28;20477;-77